TJBQ/BQN METAR and TAF weather

Enter ICAO airport designator
Station Type Date Time Source
TJBQ METAR 2021/03/03 20:50 UTC NOAA

TJBQ 032050Z 05007KT 10SM BKN044 BKN050 26/21 A3000


Station Type Date Time Source
TJBQ Decoded METAR 2021/03/03 20:50 UTC NOAA

Aquadilla, Rafael Hernandez Airport, PR, United States (TJBQ) 18-30N 067-08W 69M
Mar 03, 2021 - 03:50 PM EST / 2021.03.03 2050 UTC
Wind: from the NE (050 degrees) at 8 MPH (7 KT):0
Visibility: 10 mile(s):0
Sky conditions: mostly cloudy
Temperature: 78 F (26 C)
Dew Point: 69 F (21 C)
Relative Humidity: 73%
Pressure (altimeter): 30 in. Hg (1015 hPa)
ob: TJBQ 032050Z 05007KT 10SM BKN044 BKN050 26/21 A3000
cycle: 21

Station Type Date Time Source
TJBQ TAF 2021/03/03 18:42 UTC NOAA

TAF TJBQ 031735Z 0318/0418 07015KT P6SM VCSH SCT025 BKN060
FM032330 VRB04KT P6SM SCT025 SCT040
FM041400 06010KT P6SM SCT025
FM041600 02008KT P6SM VCSH SCT025 SCT040
AMD NOT SKED 0402/0411

Example: see airport list